sensor_id;sensor_type;location;lat;lon;timestamp;temperature;humidity
26595;DHT22;14238;49.496;8.154;2022-08-19T00:00:14;20.30;99.90
26595;DHT22;14238;49.496;8.154;2022-08-19T00:02:41;20.30;99.90
26595;DHT22;14238;49.496;8.154;2022-08-19T00:05:07;20.30;99.90
26595;DHT22;14238;49.496;8.154;2022-08-19T00:07:33;20.40;99.90
26595;DHT22;14238;49.496;8.154;2022-08-19T00:09:58;20.40;99.90
26595;DHT22;14238;49.496;8.154;2022-08-19T00:12:24;20.40;99.90
26595;DHT22;14238;49.496;8.154;2022-08-19T00:14:49;20.40;99.90
26595;DHT22;14238;49.496;8.154;2022-08-19T00:17:15;20.30;99.90
26595;DHT22;14238;49.496;8.154;2022-08-19T00:19:41;20.30;99.90
26595;DHT22;14238;49.496;8.154;2022-08-19T00:22:06;20.30;99.90
26595;DHT22;14238;49.496;8.154;2022-08-19T00:24:34;20.30;99.90
26595;DHT22;14238;49.496;8.154;2022-08-19T00:27:00;20.30;99.90
26595;DHT22;14238;49.496;8.154;2022-08-19T00:29:27;20.30;99.90
26595;DHT22;14238;49.496;8.154;2022-08-19T00:31:53;20.30;99.90
26595;DHT22;14238;49.496;8.154;2022-08-19T00:34:21;20.30;99.90
26595;DHT22;14238;49.496;8.154;2022-08-19T00:36:47;20.30;99.90
26595;DHT22;14238;49.496;8.154;2022-08-19T00:39:17;20.30;99.90
26595;DHT22;14238;49.496;8.154;2022-08-19T00:41:44;20.30;99.90
26595;DHT22;14238;49.496;8.154;2022-08-19T00:44:21;20.30;99.90
26595;DHT22;14238;49.496;8.154;2022-08-19T00:46:49;20.30;99.90
26595;DHT22;14238;49.496;8.154;2022-08-19T00:49:21;20.30;99.90
26595;DHT22;14238;49.496;8.154;2022-08-19T00:51:51;20.30;99.90
26595;DHT22;14238;49.496;8.154;2022-08-19T00:54:18;20.30;99.90
26595;DHT22;14238;49.496;8.154;2022-08-19T00:56:44;20.30;99.90
26595;DHT22;14238;49.496;8.154;2022-08-19T00:59:11;20.20;99.90
26595;DHT22;14238;49.496;8.154;2022-08-19T01:01:38;20.20;99.90
26595;DHT22;14238;49.496;8.154;2022-08-19T01:04:05;20.30;99.90
26595;DHT22;14238;49.496;8.154;2022-08-19T01:06:31;20.30;99.90
26595;DHT22;14238;49.496;8.154;2022-08-19T01:08:58;20.30;99.90
26595;DHT22;14238;49.496;8.154;2022-08-19T01:11:24;20.20;99.90
26595;DHT22;14238;49.496;8.154;2022-08-19T01:13:52;20.20;99.90
26595;DHT22;14238;49.496;8.154;2022-08-19T01:16:20;20.20;99.90
26595;DHT22;14238;49.496;8.154;2022-08-19T01:18:47;20.20;99.90
26595;DHT22;14238;49.496;8.154;2022-08-19T01:21:24;20.20;99.90
26595;DHT22;14238;49.496;8.154;2022-08-19T01:23:50;20.20;99.90
26595;DHT22;14238;49.496;8.154;2022-08-19T01:26:20;20.10;99.90
26595;DHT22;14238;49.496;8.154;2022-08-19T01:28:48;20.20;99.90
26595;DHT22;14238;49.496;8.154;2022-08-19T01:31:18;20.10;99.90
26595;DHT22;14238;49.496;8.154;2022-08-19T01:33:44;20.10;99.90
26595;DHT22;14238;49.496;8.154;2022-08-19T01:36:15;20.10;99.90
26595;DHT22;14238;49.496;8.154;2022-08-19T01:38:42;20.10;99.90
26595;DHT22;14238;49.496;8.154;2022-08-19T01:41:12;20.10;99.90
26595;DHT22;14238;49.496;8.154;2022-08-19T01:43:38;20.10;99.90
26595;DHT22;14238;49.496;8.154;2022-08-19T01:46:04;20.10;99.90
26595;DHT22;14238;49.496;8.154;2022-08-19T01:48:38;20.10;99.90
26595;DHT22;14238;49.496;8.154;2022-08-19T01:51:05;20.10;99.90
26595;DHT22;14238;49.496;8.154;2022-08-19T01:53:31;20.10;99.90
26595;DHT22;14238;49.496;8.154;2022-08-19T01:55:57;20.10;99.90
26595;DHT22;14238;49.496;8.154;2022-08-19T01:58:26;20.10;99.90
26595;DHT22;14238;49.496;8.154;2022-08-19T02:00:55;20.10;99.90
26595;DHT22;14238;49.496;8.154;2022-08-19T02:03:21;20.00;99.90
26595;DHT22;14238;49.496;8.154;2022-08-19T02:05:47;20.10;99.90
26595;DHT22;14238;49.496;8.154;2022-08-19T02:08:13;20.00;99.90
26595;DHT22;14238;49.496;8.154;2022-08-19T02:10:41;20.10;99.90
26595;DHT22;14238;49.496;8.154;2022-08-19T02:13:07;20.10;99.90
26595;DHT22;14238;49.496;8.154;2022-08-19T02:15:33;20.00;99.90
26595;DHT22;14238;49.496;8.154;2022-08-19T02:17:58;20.00;99.90
26595;DHT22;14238;49.496;8.154;2022-08-19T02:20:24;20.00;99.90
26595;DHT22;14238;49.496;8.154;2022-08-19T02:22:50;20.00;99.90
26595;DHT22;14238;49.496;8.154;2022-08-19T02:25:15;20.00;99.90
26595;DHT22;14238;49.496;8.154;2022-08-19T02:27:42;20.00;99.90
26595;DHT22;14238;49.496;8.154;2022-08-19T02:30:10;20.00;99.90
26595;DHT22;14238;49.496;8.154;2022-08-19T02:32:36;20.00;99.90
26595;DHT22;14238;49.496;8.154;2022-08-19T02:35:02;20.00;99.90
26595;DHT22;14238;49.496;8.154;2022-08-19T02:37:28;20.00;99.90
26595;DHT22;14238;49.496;8.154;2022-08-19T02:40:12;20.00;99.90
26595;DHT22;14238;49.496;8.154;2022-08-19T02:42:37;20.00;99.90
26595;DHT22;14238;49.496;8.154;2022-08-19T02:45:03;19.90;99.90
26595;DHT22;14238;49.496;8.154;2022-08-19T02:47:30;19.90;99.90
26595;DHT22;14238;49.496;8.154;2022-08-19T02:49:55;19.90;99.90
26595;DHT22;14238;49.496;8.154;2022-08-19T02:52:21;19.90;99.90
26595;DHT22;14238;49.496;8.154;2022-08-19T02:54:48;19.90;99.90
26595;DHT22;14238;49.496;8.154;2022-08-19T02:57:14;19.90;99.90
26595;DHT22;14238;49.496;8.154;2022-08-19T02:59:39;19.90;99.90
26595;DHT22;14238;49.496;8.154;2022-08-19T03:02:05;19.90;99.90
26595;DHT22;14238;49.496;8.154;2022-08-19T03:04:30;19.80;99.90
26595;DHT22;14238;49.496;8.154;2022-08-19T03:06:56;19.80;99.90
26595;DHT22;14238;49.496;8.154;2022-08-19T03:09:22;19.80;99.90
26595;DHT22;14238;49.496;8.154;2022-08-19T03:11:47;19.90;99.90
26595;DHT22;14238;49.496;8.154;2022-08-19T03:14:13;19.80;99.90
26595;DHT22;14238;49.496;8.154;2022-08-19T03:16:44;19.80;99.90
26595;DHT22;14238;49.496;8.154;2022-08-19T03:19:10;19.80;99.90
26595;DHT22;14238;49.496;8.154;2022-08-19T03:21:35;19.80;99.90
26595;DHT22;14238;49.496;8.154;2022-08-19T03:24:05;19.80;99.90
26595;DHT22;14238;49.496;8.154;2022-08-19T03:26:31;19.80;99.90
26595;DHT22;14238;49.496;8.154;2022-08-19T03:28:56;19.80;99.90
26595;DHT22;14238;49.496;8.154;2022-08-19T03:31:23;19.80;99.90
26595;DHT22;14238;49.496;8.154;2022-08-19T03:33:50;19.90;99.90
26595;DHT22;14238;49.496;8.154;2022-08-19T03:36:22;19.80;99.90
26595;DHT22;14238;49.496;8.154;2022-08-19T03:38:50;19.90;99.90
26595;DHT22;14238;49.496;8.154;2022-08-19T03:41:18;19.80;99.90
26595;DHT22;14238;49.496;8.154;2022-08-19T03:43:45;19.80;99.90
26595;DHT22;14238;49.496;8.154;2022-08-19T03:46:17;19.90;99.90
26595;DHT22;14238;49.496;8.154;2022-08-19T03:48:47;19.90;99.90
26595;DHT22;14238;49.496;8.154;2022-08-19T03:51:36;19.90;99.90
26595;DHT22;14238;49.496;8.154;2022-08-19T03:54:07;19.90;99.90
26595;DHT22;14238;49.496;8.154;2022-08-19T03:56:38;20.00;99.90
26595;DHT22;14238;49.496;8.154;2022-08-19T03:59:06;19.90;99.90
26595;DHT22;14238;49.496;8.154;2022-08-19T04:01:31;19.90;99.90
26595;DHT22;14238;49.496;8.154;2022-08-19T04:03:58;19.90;99.90
26595;DHT22;14238;49.496;8.154;2022-08-19T04:06:29;19.90;99.90
26595;DHT22;14238;49.496;8.154;2022-08-19T04:08:57;19.90;99.90
26595;DHT22;14238;49.496;8.154;2022-08-19T04:11:29;19.90;99.90
26595;DHT22;14238;49.496;8.154;2022-08-19T04:13:55;19.80;99.90
26595;DHT22;14238;49.496;8.154;2022-08-19T04:16:24;19.80;99.90
26595;DHT22;14238;49.496;8.154;2022-08-19T04:18:50;19.90;99.90
26595;DHT22;14238;49.496;8.154;2022-08-19T04:21:21;19.90;99.90
26595;DHT22;14238;49.496;8.154;2022-08-19T04:23:47;20.00;99.90
26595;DHT22;14238;49.496;8.154;2022-08-19T04:26:25;19.90;99.90
26595;DHT22;14238;49.496;8.154;2022-08-19T04:28:51;19.90;99.90
26595;DHT22;14238;49.496;8.154;2022-08-19T04:31:29;19.90;99.90
26595;DHT22;14238;49.496;8.154;2022-08-19T04:33:59;19.90;99.90
26595;DHT22;14238;49.496;8.154;2022-08-19T04:36:29;19.80;99.90
26595;DHT22;14238;49.496;8.154;2022-08-19T04:39:01;19.80;99.90
26595;DHT22;14238;49.496;8.154;2022-08-19T04:41:28;19.80;99.90
26595;DHT22;14238;49.496;8.154;2022-08-19T04:44:12;19.80;99.90
26595;DHT22;14238;49.496;8.154;2022-08-19T04:46:38;19.70;99.90
26595;DHT22;14238;49.496;8.154;2022-08-19T04:49:05;19.70;99.90
26595;DHT22;14238;49.496;8.154;2022-08-19T04:51:32;19.70;99.90
26595;DHT22;14238;49.496;8.154;2022-08-19T04:53:58;19.70;99.90
26595;DHT22;14238;49.496;8.154;2022-08-19T04:56:25;19.70;99.90
26595;DHT22;14238;49.496;8.154;2022-08-19T04:58:53;19.70;99.90
26595;DHT22;14238;49.496;8.154;2022-08-19T05:01:26;19.70;99.90
26595;DHT22;14238;49.496;8.154;2022-08-19T05:03:53;19.70;99.90
26595;DHT22;14238;49.496;8.154;2022-08-19T05:06:20;19.70;99.90
26595;DHT22;14238;49.496;8.154;2022-08-19T05:08:46;19.70;99.90
26595;DHT22;14238;49.496;8.154;2022-08-19T05:11:21;19.70;99.90
26595;DHT22;14238;49.496;8.154;2022-08-19T05:13:48;19.80;99.90
26595;DHT22;14238;49.496;8.154;2022-08-19T05:16:16;19.80;99.90
26595;DHT22;14238;49.496;8.154;2022-08-19T05:18:42;19.80;99.90
26595;DHT22;14238;49.496;8.154;2022-08-19T05:21:27;19.80;99.90
26595;DHT22;14238;49.496;8.154;2022-08-19T05:24:12;19.80;99.90
26595;DHT22;14238;49.496;8.154;2022-08-19T05:26:40;19.80;99.90
26595;DHT22;14238;49.496;8.154;2022-08-19T05:29:06;19.90;99.90
26595;DHT22;14238;49.496;8.154;2022-08-19T05:31:33;19.90;99.90
26595;DHT22;14238;49.496;8.154;2022-08-19T05:33:59;20.00;99.90
26595;DHT22;14238;49.496;8.154;2022-08-19T05:36:32;20.10;99.90
26595;DHT22;14238;49.496;8.154;2022-08-19T05:38:58;20.10;99.90
26595;DHT22;14238;49.496;8.154;2022-08-19T05:41:23;20.20;99.90
26595;DHT22;14238;49.496;8.154;2022-08-19T05:43:58;20.20;99.90
26595;DHT22;14238;49.496;8.154;2022-08-19T05:46:24;20.30;99.90
26595;DHT22;14238;49.496;8.154;2022-08-19T05:48:49;20.30;99.90
26595;DHT22;14238;49.496;8.154;2022-08-19T05:51:15;20.40;99.90
26595;DHT22;14238;49.496;8.154;2022-08-19T05:53:42;20.40;99.90
26595;DHT22;14238;49.496;8.154;2022-08-19T05:56:12;20.40;99.90
26595;DHT22;14238;49.496;8.154;2022-08-19T05:58:38;20.50;99.90
26595;DHT22;14238;49.496;8.154;2022-08-19T06:01:09;20.60;99.90
26595;DHT22;14238;49.496;8.154;2022-08-19T06:03:36;20.60;99.90
26595;DHT22;14238;49.496;8.154;2022-08-19T06:06:03;20.70;99.90
26595;DHT22;14238;49.496;8.154;2022-08-19T06:08:29;20.70;99.90
26595;DHT22;14238;49.496;8.154;2022-08-19T06:10:55;20.70;99.90
26595;DHT22;14238;49.496;8.154;2022-08-19T06:13:21;20.70;99.90
26595;DHT22;14238;49.496;8.154;2022-08-19T06:15:48;20.80;99.90
26595;DHT22;14238;49.496;8.154;2022-08-19T06:18:15;20.90;99.90
26595;DHT22;14238;49.496;8.154;2022-08-19T06:20:42;20.90;99.90
26595;DHT22;14238;49.496;8.154;2022-08-19T06:23:08;20.90;99.90
26595;DHT22;14238;49.496;8.154;2022-08-19T06:25:34;20.90;99.90
26595;DHT22;14238;49.496;8.154;2022-08-19T06:28:00;20.90;99.90
26595;DHT22;14238;49.496;8.154;2022-08-19T06:30:25;21.00;99.90
26595;DHT22;14238;49.496;8.154;2022-08-19T06:32:51;21.00;99.90
26595;DHT22;14238;49.496;8.154;2022-08-19T06:35:17;21.00;99.90
26595;DHT22;14238;49.496;8.154;2022-08-19T06:37:42;21.00;99.90
26595;DHT22;14238;49.496;8.154;2022-08-19T06:40:09;21.10;99.90
26595;DHT22;14238;49.496;8.154;2022-08-19T06:42:36;21.10;99.90
26595;DHT22;14238;49.496;8.154;2022-08-19T06:45:04;21.20;99.90
26595;DHT22;14238;49.496;8.154;2022-08-19T06:47:30;21.30;99.90
26595;DHT22;14238;49.496;8.154;2022-08-19T06:49:58;21.30;99.90
26595;DHT22;14238;49.496;8.154;2022-08-19T06:52:33;21.30;99.90
26595;DHT22;14238;49.496;8.154;2022-08-19T06:54:59;21.40;99.90
26595;DHT22;14238;49.496;8.154;2022-08-19T06:57:25;21.40;99.90
26595;DHT22;14238;49.496;8.154;2022-08-19T06:59:52;21.40;99.90
26595;DHT22;14238;49.496;8.154;2022-08-19T07:02:18;21.50;99.90
26595;DHT22;14238;49.496;8.154;2022-08-19T07:04:44;21.50;99.90
26595;DHT22;14238;49.496;8.154;2022-08-19T07:07:13;21.60;99.90
26595;DHT22;14238;49.496;8.154;2022-08-19T07:09:41;21.70;99.90
26595;DHT22;14238;49.496;8.154;2022-08-19T07:12:12;21.70;99.90
26595;DHT22;14238;49.496;8.154;2022-08-19T07:14:40;21.70;99.90
26595;DHT22;14238;49.496;8.154;2022-08-19T07:17:11;21.70;99.90
26595;DHT22;14238;49.496;8.154;2022-08-19T07:19:38;21.70;99.90
26595;DHT22;14238;49.496;8.154;2022-08-19T07:22:05;21.60;99.90
26595;DHT22;14238;49.496;8.154;2022-08-19T07:24:32;21.70;99.90
26595;DHT22;14238;49.496;8.154;2022-08-19T07:27:00;21.70;99.90
26595;DHT22;14238;49.496;8.154;2022-08-19T07:29:29;21.70;99.90
26595;DHT22;14238;49.496;8.154;2022-08-19T07:31:55;21.70;99.90
26595;DHT22;14238;49.496;8.154;2022-08-19T07:34:22;21.70;99.90
26595;DHT22;14238;49.496;8.154;2022-08-19T07:36:48;21.70;99.90
26595;DHT22;14238;49.496;8.154;2022-08-19T07:39:17;21.70;99.90
26595;DHT22;14238;49.496;8.154;2022-08-19T07:41:44;21.80;99.90
26595;DHT22;14238;49.496;8.154;2022-08-19T07:44:10;21.80;99.90
26595;DHT22;14238;49.496;8.154;2022-08-19T07:46:40;21.90;99.90
26595;DHT22;14238;49.496;8.154;2022-08-19T07:49:07;21.90;99.90
26595;DHT22;14238;49.496;8.154;2022-08-19T07:51:33;21.90;99.90
26595;DHT22;14238;49.496;8.154;2022-08-19T07:53:59;22.10;99.90
26595;DHT22;14238;49.496;8.154;2022-08-19T07:56:25;22.30;99.90
26595;DHT22;14238;49.496;8.154;2022-08-19T07:58:52;22.40;99.90
26595;DHT22;14238;49.496;8.154;2022-08-19T08:01:22;22.60;99.90
26595;DHT22;14238;49.496;8.154;2022-08-19T08:03:49;22.70;99.90
26595;DHT22;14238;49.496;8.154;2022-08-19T08:06:34;22.80;99.90
26595;DHT22;14238;49.496;8.154;2022-08-19T08:09:25;22.80;99.90
26595;DHT22;14238;49.496;8.154;2022-08-19T08:11:54;22.80;99.90
26595;DHT22;14238;49.496;8.154;2022-08-19T08:14:25;22.90;99.90
26595;DHT22;14238;49.496;8.154;2022-08-19T08:16:51;23.20;99.90
26595;DHT22;14238;49.496;8.154;2022-08-19T08:19:20;23.30;99.90
26595;DHT22;14238;49.496;8.154;2022-08-19T08:21:47;23.40;99.90
26595;DHT22;14238;49.496;8.154;2022-08-19T08:24:14;23.60;99.90
26595;DHT22;14238;49.496;8.154;2022-08-19T08:26:40;23.60;99.90
26595;DHT22;14238;49.496;8.154;2022-08-19T08:29:06;23.80;99.90
26595;DHT22;14238;49.496;8.154;2022-08-19T08:31:36;23.90;99.90
26595;DHT22;14238;49.496;8.154;2022-08-19T08:34:02;23.90;99.90
26595;DHT22;14238;49.496;8.154;2022-08-19T08:36:29;23.90;99.90
26595;DHT22;14238;49.496;8.154;2022-08-19T08:38:54;24.10;99.90
26595;DHT22;14238;49.496;8.154;2022-08-19T08:43:49;24.70;99.90
26595;DHT22;14238;49.496;8.154;2022-08-19T08:46:44;24.80;99.90
26595;DHT22;14238;49.496;8.154;2022-08-19T08:49:41;25.00;99.90
26595;DHT22;14238;49.496;8.154;2022-08-19T08:52:18;24.70;99.90
26595;DHT22;14238;49.496;8.154;2022-08-19T08:54:47;24.80;99.90
26595;DHT22;14238;49.496;8.154;2022-08-19T08:57:19;24.90;99.90
26595;DHT22;14238;49.496;8.154;2022-08-19T08:59:47;24.50;99.90
26595;DHT22;14238;49.496;8.154;2022-08-19T09:02:16;24.00;99.90
26595;DHT22;14238;49.496;8.154;2022-08-19T09:04:42;24.10;99.90
26595;DHT22;14238;49.496;8.154;2022-08-19T09:07:24;24.60;99.90
26595;DHT22;14238;49.496;8.154;2022-08-19T09:09:52;24.90;99.90
26595;DHT22;14238;49.496;8.154;2022-08-19T09:12:48;25.20;99.90
26595;DHT22;14238;49.496;8.154;2022-08-19T09:15:18;25.30;99.90
26595;DHT22;14238;49.496;8.154;2022-08-19T09:17:47;25.30;99.90
26595;DHT22;14238;49.496;8.154;2022-08-19T09:20:18;25.40;99.90
26595;DHT22;14238;49.496;8.154;2022-08-19T09:22:44;25.60;99.90
26595;DHT22;14238;49.496;8.154;2022-08-19T09:25:13;25.60;99.90
26595;DHT22;14238;49.496;8.154;2022-08-19T09:27:40;25.80;99.90
26595;DHT22;14238;49.496;8.154;2022-08-19T09:30:08;25.70;99.90
26595;DHT22;14238;49.496;8.154;2022-08-19T09:32:33;26.00;99.90
26595;DHT22;14238;49.496;8.154;2022-08-19T09:34:59;25.90;99.90
26595;DHT22;14238;49.496;8.154;2022-08-19T09:37:27;26.20;99.90
26595;DHT22;14238;49.496;8.154;2022-08-19T09:39:53;26.20;99.90
26595;DHT22;14238;49.496;8.154;2022-08-19T09:42:19;26.40;99.90
26595;DHT22;14238;49.496;8.154;2022-08-19T09:44:45;26.30;99.90
26595;DHT22;14238;49.496;8.154;2022-08-19T09:47:12;26.30;99.90
26595;DHT22;14238;49.496;8.154;2022-08-19T09:49:39;26.30;99.90
26595;DHT22;14238;49.496;8.154;2022-08-19T09:52:07;26.50;99.90
26595;DHT22;14238;49.496;8.154;2022-08-19T09:54:33;26.80;99.90
26595;DHT22;14238;49.496;8.154;2022-08-19T09:56:59;27.10;99.90
26595;DHT22;14238;49.496;8.154;2022-08-19T09:59:28;27.10;99.90
26595;DHT22;14238;49.496;8.154;2022-08-19T10:01:55;26.90;99.90
26595;DHT22;14238;49.496;8.154;2022-08-19T10:04:21;27.20;99.90
26595;DHT22;14238;49.496;8.154;2022-08-19T10:06:48;27.00;99.90
26595;DHT22;14238;49.496;8.154;2022-08-19T10:09:16;27.30;99.90
26595;DHT22;14238;49.496;8.154;2022-08-19T10:11:44;27.50;99.90
26595;DHT22;14238;49.496;8.154;2022-08-19T10:14:13;27.90;99.90
26595;DHT22;14238;49.496;8.154;2022-08-19T10:16:38;27.60;99.90
26595;DHT22;14238;49.496;8.154;2022-08-19T10:19:06;26.50;99.90
26595;DHT22;14238;49.496;8.154;2022-08-19T10:21:32;26.80;99.90
26595;DHT22;14238;49.496;8.154;2022-08-19T10:24:00;27.30;99.90
26595;DHT22;14238;49.496;8.154;2022-08-19T10:26:36;27.80;99.90
26595;DHT22;14238;49.496;8.154;2022-08-19T10:29:03;28.20;99.90
26595;DHT22;14238;49.496;8.154;2022-08-19T10:31:31;28.00;99.90
26595;DHT22;14238;49.496;8.154;2022-08-19T10:33:58;27.40;99.90
26595;DHT22;14238;49.496;8.154;2022-08-19T10:36:27;27.20;99.90
26595;DHT22;14238;49.496;8.154;2022-08-19T10:38:55;27.50;99.90
26595;DHT22;14238;49.496;8.154;2022-08-19T10:41:25;28.00;98.40
26595;DHT22;14238;49.496;8.154;2022-08-19T10:43:56;28.50;96.80
26595;DHT22;14238;49.496;8.154;2022-08-19T10:46:25;28.90;96.00
26595;DHT22;14238;49.496;8.154;2022-08-19T10:48:50;28.40;97.60
26595;DHT22;14238;49.496;8.154;2022-08-19T10:51:17;28.40;97.50
26595;DHT22;14238;49.496;8.154;2022-08-19T10:54:01;28.00;98.50
26595;DHT22;14238;49.496;8.154;2022-08-19T10:56:28;27.50;98.60
26595;DHT22;14238;49.496;8.154;2022-08-19T10:59:13;27.70;98.20
26595;DHT22;14238;49.496;8.154;2022-08-19T11:01:40;27.80;97.20
26595;DHT22;14238;49.496;8.154;2022-08-19T11:04:06;28.00;97.30
26595;DHT22;14238;49.496;8.154;2022-08-19T11:06:35;28.20;95.60
26595;DHT22;14238;49.496;8.154;2022-08-19T11:09:02;28.10;96.90
26595;DHT22;14238;49.496;8.154;2022-08-19T11:11:28;28.10;97.20
26595;DHT22;14238;49.496;8.154;2022-08-19T11:13:54;28.20;97.40
26595;DHT22;14238;49.496;8.154;2022-08-19T11:16:23;28.10;97.10
26595;DHT22;14238;49.496;8.154;2022-08-19T11:18:54;28.20;96.50
26595;DHT22;14238;49.496;8.154;2022-08-19T11:21:29;28.50;96.00
26595;DHT22;14238;49.496;8.154;2022-08-19T11:24:01;28.20;96.80
26595;DHT22;14238;49.496;8.154;2022-08-19T11:26:29;27.90;95.40
26595;DHT22;14238;49.496;8.154;2022-08-19T11:28:56;28.00;94.70
26595;DHT22;14238;49.496;8.154;2022-08-19T11:31:25;28.50;94.90
26595;DHT22;14238;49.496;8.154;2022-08-19T11:33:51;28.90;93.60
26595;DHT22;14238;49.496;8.154;2022-08-19T11:36:20;29.00;92.00
26595;DHT22;14238;49.496;8.154;2022-08-19T11:38:47;28.80;92.90
26595;DHT22;14238;49.496;8.154;2022-08-19T11:41:14;28.60;93.60
26595;DHT22;14238;49.496;8.154;2022-08-19T11:43:40;29.00;91.90
26595;DHT22;14238;49.496;8.154;2022-08-19T11:46:08;29.00;92.40
26595;DHT22;14238;49.496;8.154;2022-08-19T11:48:35;29.30;90.70
26595;DHT22;14238;49.496;8.154;2022-08-19T11:51:05;29.20;91.30
26595;DHT22;14238;49.496;8.154;2022-08-19T11:53:34;29.20;91.70
26595;DHT22;14238;49.496;8.154;2022-08-19T11:56:00;29.40;91.70
26595;DHT22;14238;49.496;8.154;2022-08-19T11:58:25;29.50;90.90
26595;DHT22;14238;49.496;8.154;2022-08-19T12:00:51;29.50;90.70
26595;DHT22;14238;49.496;8.154;2022-08-19T12:03:17;29.60;90.40
26595;DHT22;14238;49.496;8.154;2022-08-19T12:05:44;29.70;92.10
26595;DHT22;14238;49.496;8.154;2022-08-19T12:08:10;29.90;91.60
26595;DHT22;14238;49.496;8.154;2022-08-19T12:10:38;29.90;90.70
26595;DHT22;14238;49.496;8.154;2022-08-19T12:13:04;30.20;90.70
26595;DHT22;14238;49.496;8.154;2022-08-19T12:15:38;29.90;90.40
26595;DHT22;14238;49.496;8.154;2022-08-19T12:18:06;29.60;90.50
26595;DHT22;14238;49.496;8.154;2022-08-19T12:20:38;29.70;90.40
26595;DHT22;14238;49.496;8.154;2022-08-19T12:23:05;30.00;91.50
26595;DHT22;14238;49.496;8.154;2022-08-19T12:25:31;30.00;90.00
26595;DHT22;14238;49.496;8.154;2022-08-19T12:27:58;29.40;88.60
26595;DHT22;14238;49.496;8.154;2022-08-19T12:30:24;29.00;89.90
26595;DHT22;14238;49.496;8.154;2022-08-19T12:32:49;28.80;90.20
26595;DHT22;14238;49.496;8.154;2022-08-19T12:35:17;28.90;90.90
26595;DHT22;14238;49.496;8.154;2022-08-19T12:37:43;28.50;91.20
26595;DHT22;14238;49.496;8.154;2022-08-19T12:40:10;28.30;90.70
26595;DHT22;14238;49.496;8.154;2022-08-19T12:42:37;28.50;90.40
26595;DHT22;14238;49.496;8.154;2022-08-19T12:45:03;28.40;91.10
26595;DHT22;14238;49.496;8.154;2022-08-19T12:47:28;28.90;90.30
26595;DHT22;14238;49.496;8.154;2022-08-19T12:49:55;29.60;87.40
26595;DHT22;14238;49.496;8.154;2022-08-19T12:52:25;30.10;85.10
26595;DHT22;14238;49.496;8.154;2022-08-19T12:54:53;29.90;85.70
26595;DHT22;14238;49.496;8.154;2022-08-19T12:57:19;29.80;85.00
26595;DHT22;14238;49.496;8.154;2022-08-19T12:59:45;29.10;86.90
26595;DHT22;14238;49.496;8.154;2022-08-19T13:02:10;28.40;89.50
26595;DHT22;14238;49.496;8.154;2022-08-19T13:04:36;28.70;89.60
26595;DHT22;14238;49.496;8.154;2022-08-19T13:07:06;28.50;90.10
26595;DHT22;14238;49.496;8.154;2022-08-19T13:09:31;28.30;90.50
26595;DHT22;14238;49.496;8.154;2022-08-19T13:11:57;28.20;90.00
26595;DHT22;14238;49.496;8.154;2022-08-19T13:14:22;28.30;90.90
26595;DHT22;14238;49.496;8.154;2022-08-19T13:16:48;28.50;90.70
26595;DHT22;14238;49.496;8.154;2022-08-19T13:19:13;28.30;90.30
26595;DHT22;14238;49.496;8.154;2022-08-19T13:21:39;28.00;89.70
26595;DHT22;14238;49.496;8.154;2022-08-19T13:24:04;27.70;90.80
26595;DHT22;14238;49.496;8.154;2022-08-19T13:26:30;28.30;90.90
26595;DHT22;14238;49.496;8.154;2022-08-19T13:28:56;28.30;90.20
26595;DHT22;14238;49.496;8.154;2022-08-19T13:31:41;27.80;90.70
26595;DHT22;14238;49.496;8.154;2022-08-19T13:34:33;27.50;91.40
26595;DHT22;14238;49.496;8.154;2022-08-19T13:37:01;27.30;92.30
26595;DHT22;14238;49.496;8.154;2022-08-19T13:39:32;27.50;92.00
26595;DHT22;14238;49.496;8.154;2022-08-19T13:41:58;28.00;92.40
26595;DHT22;14238;49.496;8.154;2022-08-19T13:44:26;29.00;91.50
26595;DHT22;14238;49.496;8.154;2022-08-19T13:46:59;29.00;90.00
26595;DHT22;14238;49.496;8.154;2022-08-19T13:49:28;28.70;88.20
26595;DHT22;14238;49.496;8.154;2022-08-19T13:51:56;28.30;90.20
26595;DHT22;14238;49.496;8.154;2022-08-19T13:54:21;28.20;90.10
26595;DHT22;14238;49.496;8.154;2022-08-19T13:56:47;28.10;90.10
26595;DHT22;14238;49.496;8.154;2022-08-19T13:59:12;27.80;91.00
26595;DHT22;14238;49.496;8.154;2022-08-19T14:01:38;27.60;91.60
26595;DHT22;14238;49.496;8.154;2022-08-19T14:04:04;27.60;92.10
26595;DHT22;14238;49.496;8.154;2022-08-19T14:06:31;27.80;91.80
26595;DHT22;14238;49.496;8.154;2022-08-19T14:08:56;27.80;90.90
26595;DHT22;14238;49.496;8.154;2022-08-19T14:11:22;27.80;92.10
26595;DHT22;14238;49.496;8.154;2022-08-19T14:13:48;27.80;91.30
26595;DHT22;14238;49.496;8.154;2022-08-19T14:16:14;27.90;90.50
26595;DHT22;14238;49.496;8.154;2022-08-19T14:18:40;27.80;90.80
26595;DHT22;14238;49.496;8.154;2022-08-19T14:21:07;27.80;90.50
26595;DHT22;14238;49.496;8.154;2022-08-19T14:23:33;28.20;90.70
26595;DHT22;14238;49.496;8.154;2022-08-19T14:26:10;28.20;90.70
26595;DHT22;14238;49.496;8.154;2022-08-19T14:28:37;28.30;91.20
26595;DHT22;14238;49.496;8.154;2022-08-19T14:31:04;28.00;91.40
26595;DHT22;14238;49.496;8.154;2022-08-19T14:33:30;27.90;91.90
26595;DHT22;14238;49.496;8.154;2022-08-19T14:35:56;27.90;91.90
26595;DHT22;14238;49.496;8.154;2022-08-19T14:38:21;27.70;91.30
26595;DHT22;14238;49.496;8.154;2022-08-19T14:40:47;27.80;91.40
26595;DHT22;14238;49.496;8.154;2022-08-19T14:43:14;27.60;91.70
26595;DHT22;14238;49.496;8.154;2022-08-19T14:45:40;27.50;92.20
26595;DHT22;14238;49.496;8.154;2022-08-19T14:48:07;27.40;92.10
26595;DHT22;14238;49.496;8.154;2022-08-19T14:50:33;27.30;92.50
26595;DHT22;14238;49.496;8.154;2022-08-19T14:53:04;27.30;91.80
26595;DHT22;14238;49.496;8.154;2022-08-19T14:55:31;27.20;92.30
26595;DHT22;14238;49.496;8.154;2022-08-19T14:57:57;27.30;91.80
26595;DHT22;14238;49.496;8.154;2022-08-19T15:00:24;27.30;91.90
26595;DHT22;14238;49.496;8.154;2022-08-19T15:02:50;27.30;92.10
26595;DHT22;14238;49.496;8.154;2022-08-19T15:05:16;27.30;92.30
26595;DHT22;14238;49.496;8.154;2022-08-19T15:07:42;27.30;92.70
26595;DHT22;14238;49.496;8.154;2022-08-19T15:10:09;27.40;92.30
26595;DHT22;14238;49.496;8.154;2022-08-19T15:12:35;27.50;92.00
26595;DHT22;14238;49.496;8.154;2022-08-19T15:15:02;27.60;92.30
26595;DHT22;14238;49.496;8.154;2022-08-19T15:17:28;27.60;92.60
26595;DHT22;14238;49.496;8.154;2022-08-19T15:19:55;27.80;92.20
26595;DHT22;14238;49.496;8.154;2022-08-19T15:22:21;28.00;91.00
26595;DHT22;14238;49.496;8.154;2022-08-19T15:24:47;28.20;91.40
26595;DHT22;14238;49.496;8.154;2022-08-19T15:27:13;28.30;92.10
26595;DHT22;14238;49.496;8.154;2022-08-19T15:29:39;28.30;90.60
26595;DHT22;14238;49.496;8.154;2022-08-19T15:32:06;28.40;89.90
26595;DHT22;14238;49.496;8.154;2022-08-19T15:34:33;28.90;89.50
26595;DHT22;14238;49.496;8.154;2022-08-19T15:36:59;29.40;89.60